This is the latest recevied weather packets stored in our database for station/object KD2RHT-13. If no packets are shown the sender has not sent any weather packets the latest 10 day(s).
| Time | Temp. | Humidity | Pressure | Rain* | Wind** | Luminosity | Snow |
|---|---|---|---|---|---|---|---|
| 1777738028 | 8.89° C | 62% | 1015.6 hPa | 0 mm | - | 220 W/m² | - |
| 1777736818 | 8.33° C | 64% | 1015.6 hPa | 0 mm | - | 150 W/m² | - |
| 1777736189 | 9.44° C | 63% | 1015.6 hPa | 0 mm | - | 245 W/m² | - |
| 1777735886 | 10.56° C | 63% | 1015.6 hPa | 0 mm | - | 606 W/m² | - |
| 1777735584 | 9.44° C | 65% | 1015.9 hPa | 0 mm | - | 965 W/m² | - |
| 1777735281 | 9.44° C | 64% | 1015.9 hPa | 0 mm | - | 317 W/m² | - |
| 1777734978 | 10° C | 66% | 1015.9 hPa | 0 mm | - | 880 W/m² | - |
| 1777734676 | 9.44° C | 68% | 1015.9 hPa | 0 mm | - | 330 W/m² | - |
| 1777734373 | 8.89° C | 68% | 1015.9 hPa | 0 mm | - | 204 W/m² | - |
| 1777734069 | 8.89° C | 68% | 1015.9 hPa | 0 mm | - | 502 W/m² | - |
| 1777733766 | 8.89° C | 66% | 1015.9 hPa | 0 mm | - | 752 W/m² | - |
| 1777733463 | 7.22° C | 74% | 1016.2 hPa | 0 mm | - | 858 W/m² | - |
| 1777733158 | 7.78° C | 71% | 1015.9 hPa | 0 mm | - | 252 W/m² | - |
| 1777732855 | 8.33° C | 70% | 1015.9 hPa | 0 mm | - | 897 W/m² | - |
| 1777732551 | 8.33° C | 74% | 1016.2 hPa | 0 mm | - | 934 W/m² | - |
| 1777732250 | 7.78° C | 73% | 1016.2 hPa | 0 mm | - | 870 W/m² | - |
| 1777731947 | 7.22° C | 75% | 1016.2 hPa | 0 mm | - | 762 W/m² | - |
| 1777731643 | 7.22° C | 76% | 1016.2 hPa | 0 mm | - | 163 W/m² | - |
| 1777731341 | 6.67° C | 75% | 1016.2 hPa | 0 mm | - | 196 W/m² | - |
| 1777731038 | 7.22° C | 75% | 1016.2 hPa | 0 mm | - | 176 W/m² | - |
| 1777730737 | 7.78° C | 76% | 1016.2 hPa | 0 mm | - | 904 W/m² | - |
| 1777730433 | 6.67° C | 76% | 1016.2 hPa | 0 mm | - | 709 W/m² | - |
| 1777730128 | 6.67° C | 79% | 1016.6 hPa | 0 mm | - | 667 W/m² | - |
| 1777729826 | 5.56° C | 82% | 1016.2 hPa | 0 mm | - | 658 W/m² | - |
| 1777729522 | 5.56° C | 82% | 1016.2 hPa | 0 mm | - | 144 W/m² | - |
* Rain latest hour (hover to see other rain measurements)
** Current wind speed in m/s (hover to see current wind gust speed)